Time,TemperatureF,DewpointF,PressureIn,WindDirection,WindDirectionDegrees,WindSpeedMPH,WindSpeedGustMPH,Humidity,HourlyPrecipIn,Conditions,Clouds,dailyrainin,SoftwareType,DateUTC
2013-03-07 00:00:00,27.3,16.7,30.43,SW,229,0.0,0.0,64,0.00,,,0.00,Wunderground v.1.13,2013-03-07 05:00:00,
2013-03-07 00:06:00,27.3,16.7,30.43,WNW,282,1.0,1.0,64,0.00,,,0.00,Wunderground v.1.13,2013-03-07 05:06:00,
2013-03-07 00:08:00,27.2,17.0,30.43,NW,318,1.0,5.0,65,0.00,,,0.00,Wunderground v.1.13,2013-03-07 05:08:00,
2013-03-07 00:09:00,27.2,16.3,30.43,NW,316,1.0,5.0,63,0.00,,,0.00,Wunderground v.1.13,2013-03-07 05:09:00,
2013-03-07 00:15:00,27.2,17.0,30.43,WNW,301,1.0,2.0,65,0.00,,,0.00,Wunderground v.1.13,2013-03-07 05:15:00,
2013-03-07 00:21:00,27.2,17.0,30.43,WNW,298,1.0,1.0,65,0.00,,,0.00,Wunderground v.1.13,2013-03-07 05:21:00,
2013-03-07 00:22:00,27.2,17.0,30.43,WNW,298,1.0,1.0,65,0.00,,,0.00,Wunderground v.1.13,2013-03-07 05:22:00,
2013-03-07 00:27:00,27.2,16.6,30.43,NW,319,1.0,2.0,64,0.00,,,0.00,Wunderground v.1.13,2013-03-07 05:27:00,
2013-03-07 00:36:00,27.2,16.6,30.43,NW,323,1.0,1.0,64,0.00,,,0.00,Wunderground v.1.13,2013-03-07 05:36:00,
2013-03-07 00:42:00,27.0,16.4,30.43,NNW,340,1.0,4.0,64,0.00,,,0.00,Wunderground v.1.13,2013-03-07 05:42:00,
2013-03-07 00:51:00,27.0,16.8,30.41,East,97,1.0,3.0,65,0.00,,,0.00,Wunderground v.1.13,2013-03-07 05:51:00,
2013-03-07 00:56:00,27.0,16.8,30.41,SSE,167,1.0,1.0,65,0.00,,,0.00,Wunderground v.1.13,2013-03-07 05:56:00,
2013-03-07 01:06:00,26.9,16.3,30.41,SW,226,1.0,1.0,64,0.00,,,0.00,Wunderground v.1.13,2013-03-07 06:06:00,
2013-03-07 01:11:00,26.9,16.7,30.41,NW,304,1.0,2.0,65,0.00,,,0.00,Wunderground v.1.13,2013-03-07 06:11:00,
2013-03-07 01:21:00,26.9,16.7,30.42,NW,319,1.0,1.0,65,0.00,,,0.00,Wunderground v.1.13,2013-03-07 06:21:00,
2013-03-07 01:26:00,26.9,16.3,30.42,NW,325,1.0,1.0,64,0.00,,,0.00,Wunderground v.1.13,2013-03-07 06:26:00,
2013-03-07 01:36:00,26.9,16.7,30.42,SW,220,1.0,1.0,65,0.00,,,0.00,Wunderground v.1.13,2013-03-07 06:36:00,
2013-03-07 01:42:00,26.9,17.0,30.42,East,82,1.0,2.0,66,0.00,,,0.00,Wunderground v.1.13,2013-03-07 06:42:00,
2013-03-07 01:51:00,26.7,16.5,30.41,NW,320,2.0,2.0,65,0.00,,,0.00,Wunderground v.1.13,2013-03-07 06:51:00,
2013-03-07 01:56:00,26.7,16.9,30.41,WNW,292,1.0,1.0,66,0.00,,,0.00,Wunderground v.1.13,2013-03-07 06:56:00,
2013-03-07 02:06:00,26.7,16.9,30.41,WSW,257,0.0,2.0,66,0.00,,,0.00,Wunderground v.1.13,2013-03-07 07:06:00,
2013-03-07 02:11:00,26.7,16.9,30.41,SSW,195,1.0,2.0,66,0.00,,,0.00,Wunderground v.1.13,2013-03-07 07:11:00,
2013-03-07 02:20:00,26.7,16.9,30.41,NW,319,1.0,5.0,66,0.00,,,0.00,Wunderground v.1.13,2013-03-07 07:20:00,
2013-03-07 02:26:00,26.6,16.8,30.41,NW,320,1.0,5.0,66,0.00,,,0.00,Wunderground v.1.13,2013-03-07 07:26:00,
2013-03-07 02:36:00,26.6,16.8,30.43,WNW,299,1.0,3.0,66,0.00,,,0.00,Wunderground v.1.13,2013-03-07 07:36:00,
2013-03-07 02:41:00,26.6,16.8,30.43,NW,304,1.0,1.0,66,0.00,,,0.00,Wunderground v.1.13,2013-03-07 07:41:00,
2013-03-07 02:50:00,26.6,17.1,30.44,WNW,282,1.0,1.0,67,0.00,,,0.00,Wunderground v.1.13,2013-03-07 07:50:00,
2013-03-07 02:56:00,26.6,17.5,30.44,WNW,299,2.0,8.0,68,0.00,,,0.00,Wunderground v.1.13,2013-03-07 07:56:00,
2013-03-07 03:06:00,26.6,17.1,30.44,WNW,292,2.0,2.0,67,0.00,,,0.00,Wunderground v.1.13,2013-03-07 08:06:00,
2013-03-07 03:11:00,26.6,17.1,30.44,West,275,1.0,1.0,67,0.00,,,0.00,Wunderground v.1.13,2013-03-07 08:11:00,
2013-03-07 03:21:00,26.6,17.1,30.44,West,265,1.0,2.0,67,0.00,,,0.00,Wunderground v.1.13,2013-03-07 08:21:00,
2013-03-07 03:27:00,26.6,17.5,30.44,WSW,253,1.0,1.0,68,0.00,,,0.00,Wunderground v.1.13,2013-03-07 08:27:00,
2013-03-07 03:36:00,26.4,17.6,30.44,SSW,206,1.0,1.0,69,0.00,,,0.00,Wunderground v.1.13,2013-03-07 08:36:00,
2013-03-07 03:41:00,26.4,17.3,30.44,SW,215,1.0,1.0,68,0.00,,,0.00,Wunderground v.1.13,2013-03-07 08:41:00,
2013-03-07 03:51:00,26.4,17.3,30.45,WNW,299,1.0,5.0,68,0.00,,,0.00,Wunderground v.1.13,2013-03-07 08:51:00,
2013-03-07 03:56:00,26.4,16.9,30.45,South,191,1.0,1.0,67,0.00,,,0.00,Wunderground v.1.13,2013-03-07 08:56:00,
2013-03-07 04:06:00,26.4,16.6,30.45,NW,309,1.0,1.0,66,0.00,,,0.00,Wunderground v.1.13,2013-03-07 09:06:00,
2013-03-07 04:11:00,26.4,16.6,30.45,South,191,1.0,1.0,66,0.00,,,0.00,Wunderground v.1.13,2013-03-07 09:11:00,
2013-03-07 04:21:00,26.4,17.3,30.44,SW,222,1.0,2.0,68,0.00,,,0.00,Wunderground v.1.13,2013-03-07 09:21:00,
2013-03-07 04:26:00,26.4,16.9,30.44,NW,315,2.0,2.0,67,0.00,,,0.00,Wunderground v.1.13,2013-03-07 09:26:00,
2013-03-07 04:36:00,26.3,16.5,30.44,NNW,336,1.0,4.0,66,0.00,,,0.00,Wunderground v.1.13,2013-03-07 09:36:00,
2013-03-07 04:41:00,26.4,17.3,30.44,WSW,254,2.0,3.0,68,0.00,,,0.00,Wunderground v.1.13,2013-03-07 09:41:00,
2013-03-07 04:51:00,26.3,16.8,30.43,West,268,1.0,1.0,67,0.00,,,0.00,Wunderground v.1.13,2013-03-07 09:51:00,
2013-03-07 04:57:00,26.3,17.2,30.43,SW,232,0.0,1.0,68,0.00,,,0.00,Wunderground v.1.13,2013-03-07 09:57:00,
2013-03-07 05:06:00,26.3,17.8,30.43,SSW,196,1.0,2.0,70,0.00,,,0.00,Wunderground v.1.13,2013-03-07 10:06:00,
2013-03-07 05:12:00,26.3,18.5,30.43,SW,216,1.0,3.0,72,0.00,,,0.00,Wunderground v.1.13,2013-03-07 10:12:00,
2013-03-07 05:21:00,26.1,18.0,30.43,SSW,200,1.0,1.0,71,0.00,,,0.00,Wunderground v.1.13,2013-03-07 10:21:00,
2013-03-07 05:26:00,26.1,18.0,30.43,West,280,1.0,2.0,71,0.00,,,0.00,Wunderground v.1.13,2013-03-07 10:26:00,
2013-03-07 05:36:00,26.1,17.6,30.43,WSW,253,1.0,1.0,70,0.00,,,0.00,Wunderground v.1.13,2013-03-07 10:36:00,
2013-03-07 05:42:00,26.1,18.0,30.43,WSW,257,0.0,1.0,71,0.00,,,0.00,Wunderground v.1.13,2013-03-07 10:42:00,
2013-03-07 05:51:00,26.1,18.3,30.42,WSW,251,1.0,1.0,72,0.00,,,0.00,Wunderground v.1.13,2013-03-07 10:51:00,
2013-03-07 05:56:00,26.1,18.3,30.42,WSW,251,0.0,0.0,72,0.00,,,0.00,Wunderground v.1.13,2013-03-07 10:56:00,
2013-03-07 06:06:00,26.1,18.6,30.42,WSW,251,0.0,0.0,73,0.00,,,0.00,Wunderground v.1.13,2013-03-07 11:06:00,
2013-03-07 06:11:00,26.1,18.9,30.42,West,265,1.0,1.0,74,0.00,,,0.00,Wunderground v.1.13,2013-03-07 11:11:00,
2013-03-07 06:21:00,26.0,19.2,30.42,West,265,0.0,0.0,75,0.00,,,0.00,Wunderground v.1.13,2013-03-07 11:21:00,
2013-03-07 06:26:00,26.1,18.9,30.42,SSW,192,1.0,1.0,74,0.00,,,0.00,Wunderground v.1.13,2013-03-07 11:26:00,
2013-03-07 06:36:00,26.1,19.3,30.42,WSW,256,1.0,1.0,75,0.00,,,0.00,Wunderground v.1.13,2013-03-07 11:36:00,
2013-03-07 06:41:00,26.1,18.9,30.42,NW,315,1.0,2.0,74,0.00,,,0.00,Wunderground v.1.13,2013-03-07 11:41:00,
2013-03-07 06:51:00,26.1,18.6,30.42,WNW,288,1.0,1.0,73,0.00,,,0.00,Wunderground v.1.13,2013-03-07 11:51:00,
2013-03-07 06:56:00,26.3,18.8,30.42,SW,219,1.0,3.0,73,0.00,,,0.00,Wunderground v.1.13,2013-03-07 11:56:00,
2013-03-07 07:06:00,26.3,17.8,30.42,SW,233,1.0,1.0,70,0.00,,,0.00,Wunderground v.1.13,2013-03-07 12:06:00,
2013-03-07 07:12:00,26.3,18.2,30.42,West,267,1.0,1.0,71,0.00,,,0.00,Wunderground v.1.13,2013-03-07 12:12:00,
2013-03-07 07:21:00,26.3,17.5,30.43,SSW,200,1.0,1.0,69,0.00,,,0.00,Wunderground v.1.13,2013-03-07 12:21:00,
2013-03-07 07:26:00,26.3,17.5,30.43,NW,319,0.0,0.0,69,0.00,,,0.00,Wunderground v.1.13,2013-03-07 12:26:00,
2013-03-07 07:36:00,26.3,17.2,30.43,West,264,1.0,2.0,68,0.00,,,0.00,Wunderground v.1.13,2013-03-07 12:36:00,
2013-03-07 07:42:00,26.3,16.8,30.43,NW,323,1.0,2.0,67,0.00,,,0.00,Wunderground v.1.13,2013-03-07 12:42:00,
2013-03-07 07:51:00,26.3,16.5,30.44,NW,311,2.0,3.0,66,0.00,,,0.00,Wunderground v.1.13,2013-03-07 12:51:00,
2013-03-07 07:56:00,26.3,17.2,30.44,WNW,291,1.0,1.0,68,0.00,,,0.00,Wunderground v.1.13,2013-03-07 12:56:00,
2013-03-07 08:06:00,26.3,16.5,30.44,SSW,203,2.0,7.0,66,0.00,,,0.00,Wunderground v.1.13,2013-03-07 13:06:00,
2013-03-07 08:11:00,26.4,16.6,30.44,NW,308,1.0,1.0,66,0.00,,,0.00,Wunderground v.1.13,2013-03-07 13:11:00,
2013-03-07 08:21:00,26.4,16.9,30.44,SSE,164,1.0,1.0,67,0.00,,,0.00,Wunderground v.1.13,2013-03-07 13:21:00,
2013-03-07 08:27:00,26.4,16.6,30.44,NW,306,1.0,1.0,66,0.00,,,0.00,Wunderground v.1.13,2013-03-07 13:27:00,
2013-03-07 08:36:00,26.6,17.1,30.43,SSW,196,2.0,2.0,67,0.00,,,0.00,Wunderground v.1.13,2013-03-07 13:36:00,
2013-03-07 08:43:00,26.7,17.2,30.43,WSW,258,1.0,2.0,67,0.00,,,0.00,Wunderground v.1.13,2013-03-07 13:43:00,
2013-03-07 08:51:00,27.0,17.1,30.44,SSW,213,1.0,2.0,66,0.00,,,0.00,Wunderground v.1.13,2013-03-07 13:51:00,
2013-03-07 08:57:00,27.2,17.0,30.44,NNW,336,2.0,4.0,65,0.00,,,0.00,Wunderground v.1.13,2013-03-07 13:57:00,
2013-03-07 09:06:00,27.5,17.3,30.44,North,353,1.0,1.0,65,0.00,,,0.00,Wunderground v.1.13,2013-03-07 14:06:00,
2013-03-07 09:11:00,27.5,17.6,30.44,WSW,244,1.0,1.0,66,0.00,,,0.00,Wunderground v.1.13,2013-03-07 14:11:00,
2013-03-07 09:21:00,27.8,17.9,30.45,East,90,2.0,2.0,66,0.00,,,0.00,Wunderground v.1.13,2013-03-07 14:21:00,
2013-03-07 09:26:00,27.9,17.6,30.45,SSW,192,1.0,1.0,65,0.00,,,0.00,Wunderground v.1.13,2013-03-07 14:26:00,
2013-03-07 09:36:00,27.9,17.6,30.45,NNW,333,2.0,3.0,65,0.00,,,0.00,Wunderground v.1.13,2013-03-07 14:36:00,
2013-03-07 09:42:00,27.9,18.0,30.45,SSW,192,2.0,2.0,66,0.00,,,0.00,Wunderground v.1.13,2013-03-07 14:42:00,
2013-03-07 09:51:00,28.2,17.9,30.45,SSW,209,1.0,1.0,65,0.00,,,0.00,Wunderground v.1.13,2013-03-07 14:51:00,
2013-03-07 09:56:00,28.5,18.2,30.45,West,277,1.0,1.0,65,0.00,,,0.00,Wunderground v.1.13,2013-03-07 14:56:00,
2013-03-07 10:06:00,28.4,18.5,30.45,SE,144,1.0,3.0,66,0.00,,,0.00,Wunderground v.1.13,2013-03-07 15:06:00,
2013-03-07 10:11:00,28.4,18.5,30.45,SW,220,2.0,2.0,66,0.00,,,0.00,Wunderground v.1.13,2013-03-07 15:11:00,
2013-03-07 10:21:00,28.5,17.9,30.44,South,174,2.0,3.0,64,0.00,,,0.00,Wunderground v.1.13,2013-03-07 15:21:00,
2013-03-07 10:27:00,28.5,18.2,30.44,SW,215,2.0,4.0,65,0.00,,,0.00,Wunderground v.1.13,2013-03-07 15:27:00,
2013-03-07 10:36:00,28.7,19.1,30.43,SSW,196,2.0,2.0,67,0.00,,,0.00,Wunderground v.1.13,2013-03-07 15:36:00,
2013-03-07 10:41:00,28.8,18.9,30.43,South,186,2.0,2.0,66,0.00,,,0.00,Wunderground v.1.13,2013-03-07 15:41:00,
2013-03-07 10:51:00,28.8,18.1,30.43,SSE,155,2.0,2.0,64,0.00,,,0.00,Wunderground v.1.13,2013-03-07 15:51:00,
2013-03-07 10:56:00,29.0,18.7,30.43,SW,229,2.0,2.0,65,0.00,,,0.00,Wunderground v.1.13,2013-03-07 15:56:00,
2013-03-07 11:06:00,29.3,18.6,30.42,East,82,2.0,2.0,64,0.00,,,0.00,Wunderground v.1.13,2013-03-07 16:06:00,
2013-03-07 11:11:00,29.4,19.1,30.42,SSW,202,2.0,9.0,65,0.00,,,0.00,Wunderground v.1.13,2013-03-07 16:11:00,
2013-03-07 11:21:00,30.0,18.2,30.42,SE,137,1.0,3.0,61,0.00,,,0.00,Wunderground v.1.13,2013-03-07 16:21:00,
2013-03-07 11:26:00,30.0,18.9,30.42,West,267,2.0,5.0,63,0.00,,,0.00,Wunderground v.1.13,2013-03-07 16:26:00,
2013-03-07 11:36:00,30.0,17.8,30.42,West,278,2.0,2.0,60,0.00,,,0.00,Wunderground v.1.13,2013-03-07 16:36:00,
2013-03-07 11:41:00,30.1,18.3,30.42,SSW,200,2.0,2.0,61,0.00,,,0.00,Wunderground v.1.13,2013-03-07 16:41:00,
2013-03-07 11:51:00,30.4,18.5,30.42,SW,230,2.0,2.0,61,0.00,,,0.00,Wunderground v.1.13,2013-03-07 16:51:00,
2013-03-07 11:56:00,30.7,18.4,30.42,WNW,295,2.0,7.0,60,0.00,,,0.00,Wunderground v.1.13,2013-03-07 16:56:00,
2013-03-07 12:07:00,30.6,18.3,30.41,NW,312,2.0,3.0,60,0.00,,,0.00,Wunderground v.1.13,2013-03-07 17:07:00,
2013-03-07 12:12:00,30.4,17.8,30.41,West,278,2.0,2.0,59,0.00,,,0.00,Wunderground v.1.13,2013-03-07 17:12:00,
2013-03-07 12:21:00,30.9,18.2,30.41,NNW,330,2.0,2.0,59,0.00,,,0.00,Wunderground v.1.13,2013-03-07 17:21:00,
2013-03-07 12:26:00,31.2,18.5,30.41,NNW,330,2.0,2.0,59,0.00,,,0.00,Wunderground v.1.13,2013-03-07 17:26:00,
2013-03-07 12:36:00,31.0,18.3,30.41,South,184,2.0,2.0,59,0.00,,,0.00,Wunderground v.1.13,2013-03-07 17:36:00,
2013-03-07 12:42:00,31.0,18.3,30.41,SW,215,2.0,3.0,59,0.00,,,0.00,Wunderground v.1.13,2013-03-07 17:42:00,
2013-03-07 12:51:00,31.0,18.3,30.40,NNW,336,2.0,2.0,59,0.00,,,0.00,Wunderground v.1.13,2013-03-07 17:51:00,
2013-03-07 12:56:00,31.0,18.3,30.40,SE,124,3.0,3.0,59,0.00,,,0.00,Wunderground v.1.13,2013-03-07 17:56:00,
2013-03-07 13:06:00,31.2,18.9,30.40,South,182,2.0,2.0,60,0.00,,,0.00,Wunderground v.1.13,2013-03-07 18:06:00,
2013-03-07 13:11:00,31.5,18.8,30.40,WSW,247,1.0,1.0,59,0.00,,,0.00,Wunderground v.1.13,2013-03-07 18:11:00,
2013-03-07 13:21:00,31.8,19.1,30.40,WNW,291,1.0,1.0,59,0.00,,,0.00,Wunderground v.1.13,2013-03-07 18:21:00,
2013-03-07 13:26:00,31.5,18.8,30.40,South,186,2.0,2.0,59,0.00,,,0.00,Wunderground v.1.13,2013-03-07 18:26:00,
2013-03-07 13:36:00,31.0,17.9,30.39,SW,215,4.0,4.0,58,0.00,,,0.00,Wunderground v.1.13,2013-03-07 18:36:00,
2013-03-07 13:41:00,31.2,18.5,30.39,SE,144,4.0,4.0,59,0.00,,,0.00,Wunderground v.1.13,2013-03-07 18:41:00,
2013-03-07 13:51:00,31.5,19.6,30.39,SSE,157,2.0,2.0,61,0.00,,,0.00,Wunderground v.1.13,2013-03-07 18:51:00,
2013-03-07 13:57:00,31.8,19.1,30.39,SSE,160,2.0,2.0,59,0.00,,,0.00,Wunderground v.1.13,2013-03-07 18:57:00,
2013-03-07 14:06:00,31.9,20.0,30.38,SSE,154,2.0,2.0,61,0.00,,,0.00,Wunderground v.1.13,2013-03-07 19:06:00,
2013-03-07 14:12:00,31.9,19.6,30.38,SW,229,2.0,5.0,60,0.00,,,0.00,Wunderground v.1.13,2013-03-07 19:12:00,
2013-03-07 14:21:00,31.6,19.3,30.37,South,185,3.0,3.0,60,0.00,,,0.00,Wunderground v.1.13,2013-03-07 19:21:00,
2013-03-07 14:26:00,31.6,20.1,30.37,SW,222,3.0,3.0,62,0.00,,,0.00,Wunderground v.1.13,2013-03-07 19:26:00,
2013-03-07 14:36:00,31.8,20.3,30.37,SSE,155,2.0,3.0,62,0.00,,,0.00,Wunderground v.1.13,2013-03-07 19:36:00,
2013-03-07 14:41:00,32.1,20.9,30.37,SSE,155,2.0,3.0,63,0.00,,,0.00,Wunderground v.1.13,2013-03-07 19:41:00,
2013-03-07 14:51:00,31.6,20.8,30.36,SW,227,3.0,3.0,64,0.00,,,0.00,Wunderground v.1.13,2013-03-07 19:51:00,
2013-03-07 14:57:00,31.5,20.3,30.36,WSW,237,2.0,3.0,63,0.00,,,0.00,Wunderground v.1.13,2013-03-07 19:57:00,
2013-03-07 15:06:00,31.2,20.8,30.36,South,175,2.0,2.0,65,0.00,,,0.00,Wunderground v.1.13,2013-03-07 20:06:00,
2013-03-07 15:12:00,30.9,21.2,30.36,SW,220,2.0,5.0,67,0.00,,,0.00,Wunderground v.1.13,2013-03-07 20:12:00,
2013-03-07 15:21:00,30.7,21.0,30.37,SSE,151,2.0,2.0,67,0.00,,,0.00,Wunderground v.1.13,2013-03-07 20:21:00,
2013-03-07 15:27:00,30.6,20.9,30.37,SSW,198,1.0,2.0,67,0.00,,,0.00,Wunderground v.1.13,2013-03-07 20:27:00,
2013-03-07 15:35:00,30.3,21.3,30.36,NNW,328,2.0,5.0,69,0.00,,,0.00,Wunderground v.1.13,2013-03-07 20:35:00,
2013-03-07 15:41:00,30.1,20.1,30.36,SE,140,2.0,2.0,66,0.00,,,0.00,Wunderground v.1.13,2013-03-07 20:41:00,
2013-03-07 15:51:00,29.8,20.2,30.36,NW,322,2.0,2.0,67,0.00,,,0.00,Wunderground v.1.13,2013-03-07 20:51:00,
2013-03-07 15:56:00,29.7,20.4,30.36,SSE,157,3.0,5.0,68,0.00,,,0.00,Wunderground v.1.13,2013-03-07 20:56:00,
2013-03-07 16:06:00,29.5,20.2,30.37,South,181,2.0,6.0,68,0.00,,,0.00,Wunderground v.1.13,2013-03-07 21:06:00,
2013-03-07 16:12:00,29.5,20.6,30.37,West,270,1.0,1.0,69,0.00,,,0.00,Wunderground v.1.13,2013-03-07 21:12:00,
2013-03-07 16:21:00,29.3,20.4,30.37,NNW,332,2.0,2.0,69,0.00,,,0.00,Wunderground v.1.13,2013-03-07 21:21:00,
2013-03-07 16:26:00,29.3,21.1,30.37,WNW,298,2.0,2.0,71,0.00,,,0.00,Wunderground v.1.13,2013-03-07 21:26:00,
2013-03-07 16:36:00,29.3,20.7,30.37,WSW,237,1.0,1.0,70,0.00,,,0.00,Wunderground v.1.13,2013-03-07 21:36:00,
2013-03-07 16:41:00,29.1,20.2,30.37,SW,229,2.0,2.0,69,0.00,,,0.00,Wunderground v.1.13,2013-03-07 21:41:00,
2013-03-07 16:51:00,29.0,20.8,30.38,SSW,208,2.0,2.0,71,0.00,,,0.00,Wunderground v.1.13,2013-03-07 21:51:00,
2013-03-07 16:57:00,29.0,20.8,30.38,West,268,1.0,1.0,71,0.00,,,0.00,Wunderground v.1.13,2013-03-07 21:57:00,
2013-03-07 17:06:00,29.0,21.1,30.38,NW,308,1.0,1.0,72,0.00,,,0.00,Wunderground v.1.13,2013-03-07 22:06:00,
2013-03-07 17:11:00,29.0,21.1,30.38,WNW,282,1.0,1.0,72,0.00,,,0.00,Wunderground v.1.13,2013-03-07 22:11:00,
2013-03-07 17:21:00,28.8,21.2,30.38,SSE,162,1.0,1.0,73,0.00,,,0.00,Wunderground v.1.13,2013-03-07 22:21:00,
2013-03-07 17:26:00,28.8,20.6,30.38,WSW,251,1.0,1.0,71,0.00,,,0.00,Wunderground v.1.13,2013-03-07 22:26:00,
2013-03-07 17:36:00,28.7,21.1,30.38,WSW,248,0.0,0.0,73,0.00,,,0.00,Wunderground v.1.13,2013-03-07 22:36:00,
2013-03-07 17:42:00,28.7,21.1,30.38,SW,223,0.0,0.0,73,0.00,,,0.00,Wunderground v.1.13,2013-03-07 22:42:00,
2013-03-07 17:51:00,28.5,20.9,30.39,SW,226,1.0,2.0,73,0.00,,,0.00,Wunderground v.1.13,2013-03-07 22:51:00,
2013-03-07 17:56:00,28.5,20.9,30.39,SSE,165,1.0,1.0,73,0.00,,,0.00,Wunderground v.1.13,2013-03-07 22:56:00,
2013-03-07 18:06:00,28.5,20.9,30.38,South,184,1.0,1.0,73,0.00,,,0.00,Wunderground v.1.13,2013-03-07 23:06:00,
2013-03-07 18:12:00,28.5,20.9,30.38,SE,145,1.0,2.0,73,0.00,,,0.00,Wunderground v.1.13,2013-03-07 23:12:00,
2013-03-07 18:21:00,28.5,20.9,30.38,West,281,1.0,1.0,73,0.00,,,0.00,Wunderground v.1.13,2013-03-07 23:21:00,
2013-03-07 18:26:00,28.4,20.8,30.38,SSE,157,2.0,2.0,73,0.00,,,0.00,Wunderground v.1.13,2013-03-07 23:26:00,
2013-03-07 18:36:00,28.4,21.2,30.39,South,186,1.0,3.0,74,0.00,,,0.00,Wunderground v.1.13,2013-03-07 23:36:00,
2013-03-07 18:42:00,28.4,20.8,30.39,WNW,301,1.0,1.0,73,0.00,,,0.00,Wunderground v.1.13,2013-03-07 23:42:00,
2013-03-07 18:51:00,28.2,20.7,30.38,South,174,1.0,1.0,73,0.00,,,0.00,Wunderground v.1.13,2013-03-07 23:51:00,
2013-03-07 18:57:00,28.2,20.7,30.38,South,169,2.0,2.0,73,0.00,,,0.00,Wunderground v.1.13,2013-03-07 23:57:00,
2013-03-07 19:06:00,28.2,20.7,30.38,South,178,1.0,3.0,73,0.00,,,0.00,Wunderground v.1.13,2013-03-08 00:06:00,
2013-03-07 19:11:00,28.2,20.0,30.38,SSE,158,2.0,6.0,71,0.00,,,0.00,Wunderground v.1.13,2013-03-08 00:11:00,
2013-03-07 19:21:00,28.1,20.2,30.38,SSE,150,1.0,1.0,72,0.00,,,0.00,Wunderground v.1.13,2013-03-08 00:21:00,
2013-03-07 19:27:00,28.1,20.6,30.38,SE,143,1.0,1.0,73,0.00,,,0.00,Wunderground v.1.13,2013-03-08 00:27:00,
2013-03-07 19:36:00,27.9,20.0,30.39,SSW,206,1.0,3.0,72,0.00,,,0.00,Wunderground v.1.13,2013-03-08 00:36:00,
2013-03-07 19:42:00,27.9,20.0,30.39,SW,224,1.0,1.0,72,0.00,,,0.00,Wunderground v.1.13,2013-03-08 00:42:00,
2013-03-07 19:51:00,27.9,20.0,30.38,WNW,295,1.0,1.0,72,0.00,,,0.00,Wunderground v.1.13,2013-03-08 00:51:00,
2013-03-07 19:56:00,27.9,20.4,30.38,WNW,292,2.0,2.0,73,0.00,,,0.00,Wunderground v.1.13,2013-03-08 00:56:00,
2013-03-07 20:06:00,27.8,20.6,30.38,East,83,2.0,2.0,74,0.00,,,0.00,Wunderground v.1.13,2013-03-08 01:06:00,
2013-03-07 20:12:00,27.8,20.9,30.38,SW,233,1.0,2.0,75,0.00,,,0.00,Wunderground v.1.13,2013-03-08 01:12:00,
2013-03-07 20:21:00,27.6,20.1,30.38,SSW,193,1.0,1.0,73,0.00,,,0.00,Wunderground v.1.13,2013-03-08 01:21:00,
2013-03-07 20:27:00,27.6,20.1,30.38,WSW,237,0.0,1.0,73,0.00,,,0.00,Wunderground v.1.13,2013-03-08 01:27:00,
2013-03-07 20:36:00,27.5,20.0,30.38,SW,220,0.0,0.0,73,0.00,,,0.00,Wunderground v.1.13,2013-03-08 01:36:00,
2013-03-07 20:42:00,27.5,19.7,30.38,SE,131,1.0,3.0,72,0.00,,,0.00,Wunderground v.1.13,2013-03-08 01:42:00,
2013-03-07 20:51:00,27.5,20.0,30.37,South,188,2.0,2.0,73,0.00,,,0.00,Wunderground v.1.13,2013-03-08 01:51:00,
2013-03-07 20:57:00,27.5,19.7,30.37,South,184,1.0,3.0,72,0.00,,,0.00,Wunderground v.1.13,2013-03-08 01:57:00,
2013-03-07 21:08:00,27.3,20.1,30.37,SSW,202,1.0,2.0,74,0.00,,,0.00,Wunderground v.1.13,2013-03-08 02:08:00,
2013-03-07 21:14:00,27.3,20.1,30.37,WNW,288,1.0,1.0,74,0.00,,,0.00,Wunderground v.1.13,2013-03-08 02:14:00,
2013-03-07 21:21:00,27.3,19.8,30.36,WNW,287,1.0,3.0,73,0.00,,,0.00,Wunderground v.1.13,2013-03-08 02:21:00,
2013-03-07 21:27:00,27.2,19.7,30.36,SE,144,1.0,3.0,73,0.00,,,0.00,Wunderground v.1.13,2013-03-08 02:27:00,
2013-03-07 21:36:00,27.2,19.7,30.36,South,185,1.0,1.0,73,0.00,,,0.00,Wunderground v.1.13,2013-03-08 02:36:00,
2013-03-07 21:42:00,27.2,20.0,30.36,South,176,1.0,5.0,74,0.00,,,0.00,Wunderground v.1.13,2013-03-08 02:42:00,
2013-03-07 21:48:00,27.2,20.0,30.36,SW,219,1.0,1.0,74,0.00,,,0.00,Wunderground v.1.13,2013-03-08 02:48:00,
2013-03-07 21:54:00,27.0,19.2,30.36,SSW,196,1.0,1.0,72,0.00,,,0.00,Wunderground v.1.13,2013-03-08 02:54:00,
2013-03-07 21:59:00,27.0,19.5,30.35,WNW,299,1.0,1.0,73,0.00,,,0.00,Wunderground v.1.13,2013-03-08 02:59:00,
2013-03-07 22:06:00,27.0,19.5,30.35,SE,137,1.0,1.0,73,0.00,,,0.00,Wunderground v.1.13,2013-03-08 03:06:00,
2013-03-07 22:11:00,27.0,19.5,30.35,SSE,168,1.0,1.0,73,0.00,,,0.00,Wunderground v.1.13,2013-03-08 03:11:00,
2013-03-07 22:23:00,26.9,19.7,30.35,West,264,1.0,2.0,74,0.00,,,0.00,Wunderground v.1.13,2013-03-08 03:23:00,
2013-03-07 22:29:00,26.9,19.7,30.35,NNE,20,0.0,2.0,74,0.00,,,0.00,Wunderground v.1.13,2013-03-08 03:29:00,
2013-03-07 22:36:00,26.9,19.7,30.35,West,270,1.0,6.0,74,0.00,,,0.00,Wunderground v.1.13,2013-03-08 03:36:00,
2013-03-07 22:42:00,26.7,19.5,30.35,SW,236,1.0,1.0,74,0.00,,,0.00,Wunderground v.1.13,2013-03-08 03:42:00,
2013-03-07 22:51:00,26.7,19.2,30.35,South,185,1.0,1.0,73,0.00,,,0.00,Wunderground v.1.13,2013-03-08 03:51:00,
2013-03-07 22:57:00,26.7,19.2,30.35,WSW,256,1.0,1.0,73,0.00,,,0.00,Wunderground v.1.13,2013-03-08 03:57:00,
2013-03-07 23:06:00,26.7,19.5,30.35,West,261,1.0,1.0,74,0.00,,,0.00,Wunderground v.1.13,2013-03-08 04:06:00,
2013-03-07 23:11:00,26.7,19.2,30.35,WSW,253,0.0,0.0,73,0.00,,,0.00,Wunderground v.1.13,2013-03-08 04:11:00,
2013-03-07 23:21:00,26.6,19.1,30.35,ENE,75,1.0,1.0,73,0.00,,,0.00,Wunderground v.1.13,2013-03-08 04:21:00,
2013-03-07 23:27:00,26.6,19.7,30.35,SW,229,1.0,1.0,75,0.00,,,0.00,Wunderground v.1.13,2013-03-08 04:27:00,
2013-03-07 23:36:00,26.6,19.4,30.35,South,185,1.0,1.0,74,0.00,,,0.00,Wunderground v.1.13,2013-03-08 04:36:00,
2013-03-07 23:41:00,26.6,19.1,30.35,SW,232,1.0,1.0,73,0.00,,,0.00,Wunderground v.1.13,2013-03-08 04:41:00,
2013-03-07 23:51:00,26.4,18.9,30.35,SSE,168,1.0,1.0,73,0.00,,,0.00,Wunderground v.1.13,2013-03-08 04:51:00,
2013-03-07 23:57:00,26.4,18.9,30.35,SSE,165,1.0,1.0,73,0.00,,,0.00,Wunderground v.1.13,2013-03-08 04:57:00,